OITM  Sahand  Airport

Maragheh, Iran

Add Bookmark
ICAO OITM
IATA ACP
Type Airport
Status Operational
Latitude
37° 20' 52" N
37.348000
Longitude
46° 7' 40" E
46.127899
Local (DST + 5) UTC (GMT + 4)
Sep 1, 2015 06:34 Sep 1, 2015 14:04
Sunrise-Sunset Local UTC
Begin Civil Twilight 06:27 01:57
Sunrise 06:54 02:24
Sunset 07:56 15:26
End Civil Twilight 08:23 15:53
VFR
VFR
MVFR
MVFR
IFR
IFR
LIFR
LIFR
Unknown
Unavailable

Current Weather

METAR Observed VFR
OITM 011300Z 07012KT 9999 FEW035CB FEW100 23/10 Q1017 Tue, Sep 1, 2015 @ 13:00 UTC
(1 Hour, 4 Minutes ago)
Visual Flight Rules
Wind Visibility Clouds Conditions
070° at 12 knots (22 kph) 10 km or more
  • Few at 3,500 ft AGL
  • Few at 10,000 ft AGL
  • No significant weather
Temperatures Readings Precipitation
Current Temp
23°C
73°F
Dewpoint
10°C
50°F
Humidity 44%
Altimeter 30.03" Hg
Sea Level Pressure 1,017 mb
Field Elevation
1,340 m
4,396 ft
None Recorded
-
-

CheckWX.com is intended as a tool to help pilots better visualize weather data. It is not intended as a substitute for an official weather briefing obtained from a Flight Service Station. CheckWX.com does not meet the FAA requirements for an official pre-flight weather briefing. Therefore, it's important that pilots still call and obtain an official FSS pre-flight weather briefing.

© 2007-2015 CheckWX.com
14:04:18 UTC